Time;durP1;ratioP1;P1;durP2;ratioP2;P2;SDS_P1;SDS_P2;PMS_P1;PMS_P2;Temp;Humidity;BMP_temperature;BMP_pressure;BME280_temperature;BME280_humidity;BME280_pressure;Samples;Min_cycle;Max_cycle;Signal;HPM_P1;HPM_P2
2021/11/25 00:02:17;;;;;;;;;;;6.30;99.90;;;;;;5007163;28;20370;-76
2021/11/25 00:04:43;;;;;;;;;;;6.40;99.90;;;;;;5013823;28;19910;-77
2021/11/25 00:07:08;;;;;;;;;;;6.40;99.90;;;;;;5013283;28;19914;-79
2021/11/25 00:09:34;;;;;;;;;;;6.30;99.90;;;;;;5021257;28;19909;-76
2021/11/25 00:12:00;;;;;;;;;;;6.30;99.90;;;;;;5028767;28;19917;-79
2021/11/25 00:14:25;;;;;;;;;;;6.30;99.90;;;;;;5026283;28;19913;-77
2021/11/25 00:16:51;;;;;;;;;;;6.40;99.90;;;;;;5011678;28;19917;-76
2021/11/25 00:19:16;;;;;;;;;;;6.40;99.90;;;;;;5013201;28;19929;-76
2021/11/25 00:21:42;;;;;;;;;;;6.40;99.90;;;;;;5013650;28;20071;-75
2021/11/25 00:24:08;;;;;;;;;;;6.30;99.90;;;;;;5013057;28;20371;-75
2021/11/25 00:26:34;;;;;;;;;;;6.40;99.90;;;;;;5014285;28;19936;-76
2021/11/25 00:29:00;;;;;;;;;;;6.40;99.90;;;;;;5012046;28;20295;-77
2021/11/25 00:31:26;;;;;;;;;;;6.40;99.90;;;;;;5011046;28;19995;-77
2021/11/25 00:33:51;;;;;;;;;;;6.50;99.90;;;;;;5012185;28;20032;-76
2021/11/25 00:36:17;;;;;;;;;;;6.50;99.90;;;;;;5016006;28;19956;-77
2021/11/25 00:38:43;;;;;;;;;;;6.40;99.90;;;;;;5013215;28;19916;-78
2021/11/25 00:41:08;;;;;;;;;;;6.50;99.90;;;;;;5013738;28;19956;-77
2021/11/25 00:43:34;;;;;;;;;;;6.50;99.90;;;;;;5013868;28;20276;-77
2021/11/25 00:45:59;;;;;;;;;;;6.50;99.90;;;;;;5014216;28;20455;-77
2021/11/25 00:48:25;;;;;;;;;;;6.40;99.90;;;;;;5013990;28;19914;-77
2021/11/25 00:50:51;;;;;;;;;;;6.50;99.90;;;;;;5029004;28;19914;-78
2021/11/25 00:53:16;;;;;;;;;;;6.40;99.90;;;;;;5011092;28;19960;-78
2021/11/25 00:55:43;;;;;;;;;;;6.40;99.90;;;;;;5013655;28;19990;-77
2021/11/25 00:58:08;;;;;;;;;;;6.40;99.90;;;;;;5005330;28;19968;-78
2021/11/25 01:00:34;;;;;;;;;;;6.40;99.90;;;;;;5010281;28;19918;-77
2021/11/25 01:03:00;;;;;;;;;;;6.50;99.90;;;;;;5011527;28;19914;-76
2021/11/25 01:05:25;;;;;;;;;;;6.50;99.90;;;;;;5027604;28;19922;-77
2021/11/25 01:07:51;;;;;;;;;;;6.50;99.90;;;;;;5011209;28;19918;-76
2021/11/25 01:10:18;;;;;;;;;;;6.50;99.90;;;;;;5008292;28;20344;-80
2021/11/25 01:12:44;;;;;;;;;;;6.50;99.90;;;;;;5005095;28;19917;-76
2021/11/25 01:15:11;;;;;;;;;;;6.50;99.90;;;;;;5004342;28;19917;-76
2021/11/25 01:17:39;;;;;;;;;;;6.50;99.90;;;;;;5011169;28;20019;-76
2021/11/25 01:20:06;;;;;;;;;;;6.60;99.90;;;;;;5011007;28;20371;-78
2021/11/25 01:22:32;;;;;;;;;;;6.60;99.90;;;;;;5012264;28;19924;-80
2021/11/25 01:24:58;;;;;;;;;;;6.60;99.90;;;;;;5011149;28;20340;-76
2021/11/25 01:27:23;;;;;;;;;;;6.60;99.90;;;;;;5010905;28;19917;-76
2021/11/25 01:29:49;;;;;;;;;;;6.50;99.90;;;;;;5026999;28;20286;-76
2021/11/25 01:32:14;;;;;;;;;;;6.50;99.90;;;;;;5007121;28;19925;-79
2021/11/25 01:34:40;;;;;;;;;;;6.50;99.90;;;;;;5005576;28;19959;-76
2021/11/25 01:37:06;;;;;;;;;;;6.60;99.90;;;;;;5006724;28;19948;-77
2021/11/25 01:39:31;;;;;;;;;;;6.50;99.90;;;;;;5010949;28;19967;-80
2021/11/25 01:41:57;;;;;;;;;;;6.50;99.90;;;;;;5006756;28;19929;-77
2021/11/25 01:44:22;;;;;;;;;;;6.50;99.90;;;;;;5012022;28;20314;-77
2021/11/25 01:46:48;;;;;;;;;;;6.50;99.90;;;;;;5003127;28;19917;-77
2021/11/25 01:49:13;;;;;;;;;;;6.50;99.90;;;;;;5002653;28;19917;-78
2021/11/25 01:51:39;;;;;;;;;;;6.50;99.90;;;;;;5002418;28;19932;-78
2021/11/25 01:54:05;;;;;;;;;;;6.60;99.90;;;;;;5018633;28;19914;-77
2021/11/25 01:56:30;;;;;;;;;;;6.50;99.90;;;;;;5008692;28;19928;-77
2021/11/25 01:58:56;;;;;;;;;;;6.50;99.90;;;;;;5005895;28;20399;-76
2021/11/25 02:01:24;;;;;;;;;;;6.50;99.90;;;;;;5001416;28;19936;-77
2021/11/25 02:03:51;;;;;;;;;;;6.50;99.90;;;;;;5000913;28;20008;-76
2021/11/25 02:06:19;;;;;;;;;;;6.50;99.90;;;;;;5002829;28;20331;-77
2021/11/25 02:08:44;;;;;;;;;;;6.50;99.90;;;;;;5002360;28;19918;-77
2021/11/25 02:11:10;;;;;;;;;;;6.50;99.90;;;;;;5008510;28;19935;-76
2021/11/25 02:13:36;;;;;;;;;;;6.40;99.90;;;;;;5001404;28;19917;-76
2021/11/25 02:16:02;;;;;;;;;;;6.40;99.90;;;;;;5009319;28;20413;-76
2021/11/25 02:18:27;;;;;;;;;;;6.40;99.90;;;;;;5009383;28;19920;-77
2021/11/25 02:20:54;;;;;;;;;;;6.50;99.90;;;;;;5017640;28;19915;-77
2021/11/25 02:23:21;;;;;;;;;;;6.40;99.90;;;;;;5009529;28;19913;-77
2021/11/25 02:25:47;;;;;;;;;;;6.40;99.90;;;;;;5005588;28;20342;-77
2021/11/25 02:28:13;;;;;;;;;;;6.40;99.90;;;;;;5003537;28;20330;-77
2021/11/25 02:30:39;;;;;;;;;;;6.40;99.90;;;;;;5004907;28;19924;-78
2021/11/25 02:33:05;;;;;;;;;;;6.40;99.90;;;;;;5009318;28;19914;-77
2021/11/25 02:35:32;;;;;;;;;;;6.40;99.90;;;;;;5008156;28;19914;-77
2021/11/25 02:37:58;;;;;;;;;;;6.40;99.90;;;;;;5007907;28;19956;-79
2021/11/25 02:40:24;;;;;;;;;;;6.30;99.90;;;;;;5021820;28;19913;-77
2021/11/25 02:42:54;;;;;;;;;;;6.30;99.90;;;;;;5020421;28;19982;-81
2021/11/25 02:45:21;;;;;;;;;;;6.30;99.90;;;;;;5026243;28;19973;-79
2021/11/25 02:47:47;;;;;;;;;;;6.30;99.90;;;;;;5012687;28;20335;-77
2021/11/25 02:50:16;;;;;;;;;;;6.30;99.90;;;;;;5009746;28;19914;-77
2021/11/25 02:52:42;;;;;;;;;;;6.30;99.90;;;;;;5009886;28;19917;-78
2021/11/25 02:55:09;;;;;;;;;;;6.30;99.90;;;;;;5019517;28;19913;-77
2021/11/25 02:57:37;;;;;;;;;;;6.30;99.90;;;;;;5004604;28;19960;-78
2021/11/25 03:00:04;;;;;;;;;;;6.20;99.90;;;;;;5004676;28;19992;-77
2021/11/25 03:02:30;;;;;;;;;;;6.20;99.90;;;;;;5019292;28;20373;-81
2021/11/25 03:04:55;;;;;;;;;;;6.20;99.90;;;;;;5007537;28;19918;-79
2021/11/25 03:07:21;;;;;;;;;;;6.20;99.90;;;;;;5023555;28;19940;-80
2021/11/25 03:09:47;;;;;;;;;;;6.20;99.90;;;;;;4995612;28;20008;-82
2021/11/25 03:12:12;;;;;;;;;;;6.20;99.90;;;;;;4998251;28;19928;-80
2021/11/25 03:14:38;;;;;;;;;;;6.20;99.90;;;;;;5008329;28;19913;-77
2021/11/25 03:17:03;;;;;;;;;;;6.20;99.90;;;;;;5008968;28;20496;-79
2021/11/25 03:19:29;;;;;;;;;;;6.30;99.90;;;;;;5004606;28;19914;-77
2021/11/25 03:21:55;;;;;;;;;;;6.40;99.90;;;;;;5007541;28;20011;-76
2021/11/25 03:24:20;;;;;;;;;;;6.50;99.90;;;;;;5021132;28;19917;-78
2021/11/25 03:26:46;;;;;;;;;;;6.50;99.90;;;;;;5006152;28;19929;-76
2021/11/25 03:29:11;;;;;;;;;;;6.60;99.90;;;;;;5008466;28;19913;-77
2021/11/25 03:31:37;;;;;;;;;;;6.70;99.90;;;;;;5004314;28;20334;-77
2021/11/25 03:34:03;;;;;;;;;;;6.70;99.90;;;;;;5010264;28;19919;-76
2021/11/25 03:36:29;;;;;;;;;;;6.70;99.90;;;;;;5008063;28;20251;-78
2021/11/25 03:38:55;;;;;;;;;;;6.90;99.90;;;;;;5005452;28;19913;-78
2021/11/25 03:41:22;;;;;;;;;;;6.90;99.90;;;;;;5008028;28;19976;-77
2021/11/25 03:43:48;;;;;;;;;;;6.90;99.90;;;;;;5004719;28;19917;-81
2021/11/25 03:46:14;;;;;;;;;;;7.00;99.90;;;;;;5010338;28;19936;-80
2021/11/25 03:48:39;;;;;;;;;;;6.90;99.90;;;;;;5005082;28;20279;-79
2021/11/25 03:51:06;;;;;;;;;;;6.90;99.90;;;;;;5004965;28;19913;-76
2021/11/25 03:53:33;;;;;;;;;;;7.00;99.90;;;;;;5002377;28;19917;-76
2021/11/25 03:55:58;;;;;;;;;;;7.00;99.90;;;;;;5003438;28;20367;-74
2021/11/25 03:58:24;;;;;;;;;;;7.10;99.90;;;;;;5019907;28;19921;-76
2021/11/25 04:00:52;;;;;;;;;;;7.10;99.90;;;;;;4999856;28;19917;-76
2021/11/25 04:03:18;;;;;;;;;;;7.10;99.90;;;;;;5006032;28;19913;-79
2021/11/25 04:05:44;;;;;;;;;;;7.20;99.90;;;;;;5017280;28;20347;-78
2021/11/25 04:08:09;;;;;;;;;;;7.20;99.90;;;;;;4996587;28;19914;-80
2021/11/25 04:10:35;;;;;;;;;;;7.20;99.90;;;;;;5005731;28;20007;-78
2021/11/25 04:13:01;;;;;;;;;;;7.20;99.90;;;;;;5004712;28;20300;-76
2021/11/25 04:15:26;;;;;;;;;;;7.30;99.90;;;;;;5009442;28;19945;-77
2021/11/25 04:17:52;;;;;;;;;;;7.40;99.90;;;;;;5007959;28;20157;-77
2021/11/25 04:20:18;;;;;;;;;;;7.40;99.90;;;;;;5006610;28;20442;-76
2021/11/25 04:22:43;;;;;;;;;;;7.40;99.90;;;;;;5010744;28;19913;-77
2021/11/25 04:25:09;;;;;;;;;;;7.50;99.90;;;;;;5013876;28;19917;-78
2021/11/25 04:27:35;;;;;;;;;;;7.40;99.90;;;;;;5007531;28;19952;-79
2021/11/25 04:38:00;;;;;;;;;;;7.50;99.90;;;;;;5005181;28;20011;-76
2021/11/25 04:40:25;;;;;;;;;;;7.50;99.90;;;;;;5010534;28;19913;-77
2021/11/25 04:42:51;;;;;;;;;;;7.60;99.90;;;;;;5011561;28;19918;-77
2021/11/25 04:45:16;;;;;;;;;;;7.60;99.90;;;;;;5010632;28;20008;-77
2021/11/25 04:47:42;;;;;;;;;;;7.70;99.90;;;;;;5010498;28;19967;-78
2021/11/25 04:50:08;;;;;;;;;;;7.70;99.90;;;;;;5007809;28;19967;-79
2021/11/25 04:52:33;;;;;;;;;;;7.80;99.90;;;;;;5009901;28;19921;-78
2021/11/25 04:54:59;;;;;;;;;;;7.80;99.90;;;;;;5001861;28;19926;-77
2021/11/25 04:57:25;;;;;;;;;;;7.80;99.90;;;;;;5008025;28;19917;-77
2021/11/25 04:59:50;;;;;;;;;;;7.90;99.90;;;;;;5005565;28;19917;-78
2021/11/25 05:02:16;;;;;;;;;;;7.90;99.90;;;;;;5009836;28;19917;-80
2021/11/25 05:04:41;;;;;;;;;;;7.90;99.90;;;;;;5015171;28;19945;-75
2021/11/25 05:07:07;;;;;;;;;;;7.90;99.90;;;;;;5015063;28;19917;-77
2021/11/25 05:09:32;;;;;;;;;;;7.90;99.90;;;;;;5016130;28;19914;-76
2021/11/25 05:11:58;;;;;;;;;;;7.80;99.90;;;;;;5032157;28;19913;-78
2021/11/25 05:14:24;;;;;;;;;;;7.70;99.90;;;;;;5014416;28;19913;-77
2021/11/25 05:16:49;;;;;;;;;;;7.70;99.90;;;;;;5009297;28;20495;-76
2021/11/25 05:19:17;;;;;;;;;;;7.80;99.90;;;;;;5004798;28;19960;-77
2021/11/25 05:21:43;;;;;;;;;;;7.80;99.90;;;;;;5011806;28;19976;-77
2021/11/25 05:24:09;;;;;;;;;;;7.80;99.90;;;;;;5012892;28;19918;-77
2021/11/25 05:26:34;;;;;;;;;;;7.80;99.90;;;;;;5011324;28;19925;-76
2021/11/25 05:29:00;;;;;;;;;;;7.80;99.90;;;;;;5008228;28;20442;-79
2021/11/25 05:31:25;;;;;;;;;;;7.90;99.90;;;;;;5011829;28;19992;-77
2021/11/25 05:33:51;;;;;;;;;;;7.90;99.90;;;;;;5005058;28;19918;-77
2021/11/25 05:36:17;;;;;;;;;;;8.00;99.90;;;;;;5013991;28;19950;-78
2021/11/25 05:38:42;;;;;;;;;;;8.10;99.90;;;;;;5006475;28;19914;-76
2021/11/25 05:41:08;;;;;;;;;;;8.10;99.90;;;;;;5009158;28;19914;-78
2021/11/25 05:43:33;;;;;;;;;;;8.20;99.90;;;;;;5011353;28;19914;-77
2021/11/25 05:45:59;;;;;;;;;;;8.20;99.90;;;;;;5005594;28;20398;-77
2021/11/25 05:48:26;;;;;;;;;;;8.20;99.90;;;;;;5005621;28;20328;-76
2021/11/25 05:50:52;;;;;;;;;;;8.20;99.90;;;;;;5014044;28;20016;-77
2021/11/25 05:53:20;;;;;;;;;;;8.20;99.90;;;;;;5008580;28;20009;-75
2021/11/25 05:55:46;;;;;;;;;;;8.10;99.90;;;;;;5003074;28;19920;-77
2021/11/25 05:58:11;;;;;;;;;;;8.00;99.90;;;;;;5003427;28;19979;-78
2021/11/25 06:00:37;;;;;;;;;;;8.10;99.90;;;;;;5005201;28;19913;-78
2021/11/25 06:03:03;;;;;;;;;;;8.20;99.90;;;;;;5007212;28;20099;-77
2021/11/25 06:05:28;;;;;;;;;;;8.30;99.90;;;;;;5005767;28;19917;-76
2021/11/25 06:07:54;;;;;;;;;;;8.30;99.90;;;;;;5005237;28;19921;-78
2021/11/25 06:10:22;;;;;;;;;;;8.30;99.90;;;;;;5004736;28;19936;-77
2021/11/25 06:12:48;;;;;;;;;;;8.40;99.90;;;;;;5003231;28;19940;-77
2021/11/25 06:15:14;;;;;;;;;;;8.40;99.90;;;;;;5011768;28;19956;-76
2021/11/25 06:17:40;;;;;;;;;;;8.40;99.90;;;;;;5009428;28;20060;-76
2021/11/25 06:20:12;;;;;;;;;;;8.60;99.90;;;;;;5010872;28;19979;-77
2021/11/25 06:22:42;;;;;;;;;;;8.70;99.90;;;;;;5009302;28;19925;-76
2021/11/25 06:25:09;;;;;;;;;;;8.60;99.90;;;;;;5008143;28;19910;-77
2021/11/25 06:27:35;;;;;;;;;;;8.70;99.90;;;;;;5007797;28;20401;-78
2021/11/25 06:30:01;;;;;;;;;;;8.70;99.90;;;;;;5003176;28;19920;-78
2021/11/25 06:32:27;;;;;;;;;;;8.70;99.90;;;;;;5000568;28;19957;-78
2021/11/25 06:34:52;;;;;;;;;;;8.70;99.90;;;;;;5009526;28;20064;-79
2021/11/25 06:37:18;;;;;;;;;;;8.70;99.90;;;;;;5009214;28;20056;-75
2021/11/25 06:39:44;;;;;;;;;;;8.60;99.90;;;;;;5011244;28;20051;-76
2021/11/25 06:42:09;;;;;;;;;;;8.60;99.90;;;;;;5009548;28;19918;-77
2021/11/25 06:44:35;;;;;;;;;;;8.70;99.90;;;;;;5009763;28;20363;-79
2021/11/25 06:47:00;;;;;;;;;;;8.80;99.90;;;;;;5008995;28;20016;-77
2021/11/25 06:49:26;;;;;;;;;;;8.80;99.90;;;;;;5009480;28;19918;-77
2021/11/25 06:51:51;;;;;;;;;;;8.80;99.90;;;;;;5021216;28;19957;-78
2021/11/25 06:54:17;;;;;;;;;;;8.80;99.90;;;;;;5009062;28;20044;-79
2021/11/25 06:56:43;;;;;;;;;;;8.80;99.90;;;;;;5012313;28;19963;-77
2021/11/25 06:59:08;;;;;;;;;;;8.90;99.90;;;;;;5009977;28;20315;-76
2021/11/25 07:01:34;;;;;;;;;;;9.00;99.90;;;;;;5009342;28;20329;-77
2021/11/25 07:04:01;;;;;;;;;;;9.00;99.90;;;;;;5012878;28;19910;-77
2021/11/25 07:06:26;;;;;;;;;;;9.10;99.90;;;;;;5012547;28;19913;-77
2021/11/25 07:08:52;;;;;;;;;;;9.10;99.90;;;;;;5006723;28;19999;-78
2021/11/25 07:11:17;;;;;;;;;;;9.10;99.90;;;;;;5007665;28;20377;-77
2021/11/25 07:13:43;;;;;;;;;;;9.20;99.90;;;;;;5002411;28;20403;-76
2021/11/25 07:16:08;;;;;;;;;;;9.20;99.90;;;;;;5000517;28;19922;-76
2021/11/25 07:18:34;;;;;;;;;;;9.20;99.90;;;;;;5008306;28;19917;-77
2021/11/25 07:21:00;;;;;;;;;;;9.20;99.90;;;;;;5023773;28;19914;-77
2021/11/25 07:23:26;;;;;;;;;;;9.20;99.90;;;;;;5027909;28;19939;-78
2021/11/25 07:25:52;;;;;;;;;;;9.10;99.90;;;;;;5019689;28;19921;-80
2021/11/25 07:28:17;;;;;;;;;;;9.10;99.90;;;;;;5019926;28;19929;-80
2021/11/25 07:30:43;;;;;;;;;;;9.10;99.90;;;;;;5042055;28;19945;-78
2021/11/25 07:33:09;;;;;;;;;;;9.10;99.90;;;;;;5029003;28;19921;-78
2021/11/25 07:35:34;;;;;;;;;;;9.10;99.90;;;;;;5019754;28;20024;-77
2021/11/25 07:38:02;;;;;;;;;;;9.20;99.90;;;;;;5035943;28;19914;-77
2021/11/25 07:40:28;;;;;;;;;;;9.20;99.90;;;;;;5012445;28;19910;-76
2021/11/25 07:42:54;;;;;;;;;;;9.20;99.90;;;;;;5014934;28;20286;-75
2021/11/25 07:45:21;;;;;;;;;;;9.20;99.90;;;;;;5008003;28;20400;-69
2021/11/25 07:47:46;;;;;;;;;;;9.30;99.90;;;;;;5010816;28;19915;-66
2021/11/25 07:50:14;;;;;;;;;;;9.30;99.90;;;;;;5011015;28;20314;-68
2021/11/25 07:52:40;;;;;;;;;;;9.40;99.90;;;;;;5011109;28;19925;-67
2021/11/25 07:55:06;;;;;;;;;;;9.50;99.90;;;;;;5011033;28;19956;-68
2021/11/25 07:57:32;;;;;;;;;;;9.50;99.90;;;;;;5003855;28;19929;-68
2021/11/25 07:59:57;;;;;;;;;;;9.50;99.90;;;;;;5011345;28;20367;-67
2021/11/25 08:02:23;;;;;;;;;;;9.50;99.90;;;;;;5009028;28;19961;-68
2021/11/25 08:04:49;;;;;;;;;;;9.50;99.90;;;;;;5006888;28;20328;-67
2021/11/25 08:07:15;;;;;;;;;;;9.50;99.90;;;;;;5014616;28;20421;-68
2021/11/25 08:09:40;;;;;;;;;;;9.50;99.90;;;;;;5000502;28;19921;-68
2021/11/25 08:12:07;;;;;;;;;;;9.60;99.90;;;;;;5003337;28;19925;-68
2021/11/25 08:14:32;;;;;;;;;;;9.70;99.90;;;;;;5007554;28;19914;-68
2021/11/25 08:16:59;;;;;;;;;;;9.70;99.90;;;;;;5015037;28;19984;-68
2021/11/25 08:19:27;;;;;;;;;;;9.70;99.90;;;;;;5011985;28;19936;-67
2021/11/25 08:21:53;;;;;;;;;;;9.80;99.90;;;;;;5013420;28;19910;-67
2021/11/25 08:24:19;;;;;;;;;;;9.80;99.90;;;;;;5009431;28;19924;-67
2021/11/25 08:26:44;;;;;;;;;;;9.90;99.90;;;;;;5009537;28;19960;-67
2021/11/25 08:29:10;;;;;;;;;;;10.00;99.90;;;;;;5012395;28;19953;-67
2021/11/25 08:31:35;;;;;;;;;;;10.00;99.90;;;;;;5008942;28;20276;-67
2021/11/25 08:34:01;;;;;;;;;;;10.10;99.90;;;;;;5012642;28;20350;-67
2021/11/25 08:36:27;;;;;;;;;;;10.10;99.90;;;;;;5011039;28;20023;-68
2021/11/25 08:38:52;;;;;;;;;;;10.20;99.90;;;;;;5005140;28;19967;-67
2021/11/25 08:41:18;;;;;;;;;;;10.30;99.90;;;;;;5009821;28;19921;-70
2021/11/25 08:43:43;;;;;;;;;;;10.40;99.90;;;;;;5008381;28;19914;-69
2021/11/25 08:46:09;;;;;;;;;;;10.50;99.90;;;;;;5008915;28;19918;-70
2021/11/25 08:48:35;;;;;;;;;;;10.60;99.90;;;;;;5006730;28;19921;-71
2021/11/25 08:51:03;;;;;;;;;;;10.50;99.90;;;;;;5008802;28;20008;-69
2021/11/25 08:53:28;;;;;;;;;;;10.60;99.90;;;;;;5007901;28;19948;-68
2021/11/25 08:55:54;;;;;;;;;;;10.70;99.90;;;;;;5025185;28;19909;-68
2021/11/25 08:58:19;;;;;;;;;;;10.80;99.90;;;;;;5009929;28;19917;-68
2021/11/25 09:00:45;;;;;;;;;;;10.80;99.90;;;;;;5005948;28;19913;-68
2021/11/25 09:03:10;;;;;;;;;;;10.90;99.90;;;;;;5006879;28;20339;-68
2021/11/25 09:05:36;;;;;;;;;;;10.90;99.90;;;;;;5013182;28;20013;-68
2021/11/25 09:08:02;;;;;;;;;;;10.90;99.90;;;;;;5005472;28;19913;-69
2021/11/25 09:10:27;;;;;;;;;;;10.90;99.90;;;;;;5007152;28;19921;-68
2021/11/25 09:12:53;;;;;;;;;;;11.00;99.90;;;;;;5006523;28;19956;-68
2021/11/25 09:15:19;;;;;;;;;;;11.10;99.90;;;;;;5004711;28;19913;-69
2021/11/25 09:17:45;;;;;;;;;;;11.30;99.90;;;;;;5008609;28;19913;-68
2021/11/25 09:20:11;;;;;;;;;;;11.30;99.90;;;;;;5010205;28;20429;-68
2021/11/25 09:22:38;;;;;;;;;;;11.20;99.90;;;;;;5006627;28;20382;-70
2021/11/25 09:25:05;;;;;;;;;;;11.20;99.90;;;;;;5004844;28;19921;-70
2021/11/25 09:27:31;;;;;;;;;;;11.20;99.90;;;;;;4996155;28;20506;-69
2021/11/25 09:29:56;;;;;;;;;;;11.10;99.90;;;;;;5002686;28;20370;-68
2021/11/25 09:32:22;;;;;;;;;;;11.30;99.90;;;;;;5005003;28;20300;-69
2021/11/25 09:34:47;;;;;;;;;;;11.30;99.90;;;;;;4997695;28;19918;-69
2021/11/25 09:37:13;;;;;;;;;;;11.40;99.90;;;;;;4998266;28;19973;-68
2021/11/25 09:39:39;;;;;;;;;;;11.50;99.90;;;;;;5002527;28;19959;-67
2021/11/25 09:42:04;;;;;;;;;;;11.50;99.90;;;;;;5004275;28;19921;-69
2021/11/25 09:44:30;;;;;;;;;;;11.50;99.90;;;;;;4999648;28;19914;-68
2021/11/25 09:46:58;;;;;;;;;;;11.50;99.90;;;;;;4996281;28;19924;-69
2021/11/25 09:49:24;;;;;;;;;;;11.50;99.90;;;;;;4994234;28;19953;-68
2021/11/25 09:51:52;;;;;;;;;;;11.60;99.90;;;;;;5001433;28;20367;-69
2021/11/25 09:54:18;;;;;;;;;;;11.60;99.90;;;;;;5007428;28;19996;-68
2021/11/25 09:56:44;;;;;;;;;;;11.70;99.90;;;;;;5012297;28;20358;-68
2021/11/25 09:59:09;;;;;;;;;;;12.00;99.90;;;;;;5008222;28;19914;-68
2021/11/25 10:01:35;;;;;;;;;;;12.00;99.90;;;;;;5005847;28;20391;-69
2021/11/25 10:04:00;;;;;;;;;;;12.00;99.90;;;;;;5011100;28;20421;-69
2021/11/25 10:06:29;;;;;;;;;;;12.00;99.90;;;;;;4995699;28;19918;-68
2021/11/25 10:08:56;;;;;;;;;;;12.10;99.90;;;;;;5004083;28;19914;-68
2021/11/25 10:11:33;;;;;;;;;;;12.40;99.90;;;;;;5010046;28;19910;-69
2021/11/25 10:14:08;;;;;;;;;;;12.40;99.90;;;;;;4991886;28;20448;-69
2021/11/25 10:16:44;;;;;;;;;;;12.40;99.90;;;;;;4993258;28;19914;-68
2021/11/25 10:19:13;;;;;;;;;;;12.40;99.90;;;;;;4992587;28;19981;-68
2021/11/25 10:21:43;;;;;;;;;;;12.40;99.90;;;;;;4992782;28;19917;-68
2021/11/25 10:24:09;;;;;;;;;;;12.40;99.90;;;;;;4993465;28;19920;-69
2021/11/25 10:26:35;;;;;;;;;;;12.60;99.90;;;;;;5011125;28;19921;-68
2021/11/25 10:29:07;;;;;;;;;;;12.80;99.90;;;;;;5011078;28;19921;-68
2021/11/25 10:31:33;;;;;;;;;;;13.00;99.90;;;;;;5009372;28;19913;-68
2021/11/25 10:34:00;;;;;;;;;;;13.20;99.90;;;;;;5009473;28;20063;-68
2021/11/25 10:36:32;;;;;;;;;;;13.30;99.90;;;;;;5007445;28;20335;-68
2021/11/25 10:39:15;;;;;;;;;;;13.40;99.90;;;;;;5004414;28;19949;-67
2021/11/25 10:41:42;;;;;;;;;;;13.50;99.90;;;;;;5001312;28;20498;-67
2021/11/25 10:44:10;;;;;;;;;;;13.50;99.90;;;;;;5011509;28;19910;-68
2021/11/25 10:46:37;;;;;;;;;;;13.50;99.90;;;;;;5011650;28;19914;-68
2021/11/25 10:49:03;;;;;;;;;;;13.70;99.90;;;;;;5011127;28;20315;-69
2021/11/25 10:51:29;;;;;;;;;;;13.70;99.90;;;;;;5011105;28;19921;-67
2021/11/25 10:54:06;;;;;;;;;;;13.60;99.90;;;;;;5010467;28;20240;-69
2021/11/25 10:56:34;;;;;;;;;;;13.60;99.90;;;;;;5011402;28;19987;-67
2021/11/25 10:59:00;;;;;;;;;;;13.60;99.90;;;;;;5011352;28;20279;-67
2021/11/25 11:01:36;;;;;;;;;;;13.60;99.90;;;;;;5012678;28;19913;-67
2021/11/25 11:04:02;;;;;;;;;;;13.60;99.90;;;;;;5008840;28;19947;-68
2021/11/25 11:06:35;;;;;;;;;;;13.60;99.90;;;;;;5010182;28;19921;-67
2021/11/25 11:09:01;;;;;;;;;;;13.60;99.90;;;;;;5010776;28;20399;-69
2021/11/25 11:11:27;;;;;;;;;;;13.50;99.90;;;;;;5025239;28;19913;-71
2021/11/25 11:14:13;;;;;;;;;;;13.40;99.90;;;;;;5011348;28;19913;-71
2021/11/25 11:19:14;;;;;;;;;;;13.30;99.90;;;;;;5004241;28;19966;-68
2021/11/25 11:21:40;;;;;;;;;;;13.40;99.90;;;;;;5010596;28;19913;-66
2021/11/25 11:24:18;;;;;;;;;;;13.50;99.90;;;;;;5010229;28;19916;-69
2021/11/25 11:26:46;;;;;;;;;;;13.50;99.90;;;;;;5004978;28;20367;-68
2021/11/25 11:29:12;;;;;;;;;;;13.40;99.90;;;;;;4991662;28;20004;-67
2021/11/25 11:31:38;;;;;;;;;;;13.30;99.90;;;;;;4996079;28;20431;-68
2021/11/25 11:34:05;;;;;;;;;;;13.20;99.90;;;;;;5009634;28;20379;-69
2021/11/25 11:36:31;;;;;;;;;;;13.20;99.90;;;;;;5006253;28;19940;-69
2021/11/25 11:38:58;;;;;;;;;;;13.30;99.90;;;;;;5002272;28;19921;-69
2021/11/25 11:41:24;;;;;;;;;;;13.40;99.90;;;;;;5002554;28;19940;-69
2021/11/25 11:43:49;;;;;;;;;;;13.50;99.90;;;;;;5002111;28;19913;-67
2021/11/25 11:46:16;;;;;;;;;;;13.60;99.90;;;;;;5007635;28;19928;-68
2021/11/25 11:48:42;;;;;;;;;;;13.70;99.90;;;;;;5007632;28;20398;-68
2021/11/25 11:51:15;;;;;;;;;;;13.70;99.90;;;;;;5025048;28;19910;-67
2021/11/25 11:53:42;;;;;;;;;;;13.70;99.90;;;;;;5008717;28;19917;-69
2021/11/25 11:56:09;;;;;;;;;;;13.60;99.90;;;;;;5009514;28;20427;-69
2021/11/25 11:58:41;;;;;;;;;;;13.70;99.90;;;;;;5004291;28;19945;-68
2021/11/25 12:01:07;;;;;;;;;;;13.90;99.90;;;;;;5003428;28;20398;-69
2021/11/25 12:03:32;;;;;;;;;;;14.00;99.90;;;;;;5002864;28;19945;-67
2021/11/25 12:05:58;;;;;;;;;;;14.20;99.90;;;;;;5002654;28;19918;-68
2021/11/25 12:08:30;;;;;;;;;;;14.40;99.90;;;;;;5007776;28;20000;-70
2021/11/25 12:10:56;;;;;;;;;;;14.30;99.90;;;;;;5008141;28;19920;-67
2021/11/25 12:13:22;;;;;;;;;;;14.30;99.90;;;;;;5002817;28;19921;-69
2021/11/25 12:15:48;;;;;;;;;;;14.20;99.90;;;;;;5021766;28;20224;-68
2021/11/25 12:18:30;;;;;;;;;;;14.30;99.90;;;;;;5008146;28;19918;-68
2021/11/25 12:20:56;;;;;;;;;;;14.20;99.90;;;;;;5009843;28;19940;-69
2021/11/25 12:23:35;;;;;;;;;;;14.20;99.90;;;;;;5001943;28;19971;-68
2021/11/25 12:26:02;;;;;;;;;;;14.00;99.90;;;;;;5007285;28;19996;-68
2021/11/25 12:28:29;;;;;;;;;;;13.90;99.90;;;;;;5007641;28;19913;-68
2021/11/25 12:30:57;;;;;;;;;;;13.90;99.90;;;;;;5010034;28;19913;-69
2021/11/25 12:33:39;;;;;;;;;;;13.80;99.90;;;;;;5003449;28;19913;-69
2021/11/25 12:36:05;;;;;;;;;;;13.80;99.90;;;;;;5003886;28;20394;-68
2021/11/25 12:38:35;;;;;;;;;;;13.80;99.90;;;;;;5008726;28;19914;-68
2021/11/25 12:41:03;;;;;;;;;;;13.70;99.90;;;;;;5008423;28;19983;-68
2021/11/25 12:43:29;;;;;;;;;;;13.70;99.90;;;;;;5007065;28;19914;-69
2021/11/25 12:45:56;;;;;;;;;;;13.80;99.90;;;;;;5010159;28;20008;-69
2021/11/25 12:48:22;;;;;;;;;;;14.00;99.90;;;;;;5012861;28;19917;-68
2021/11/25 12:50:51;;;;;;;;;;;14.10;99.90;;;;;;5011455;28;19924;-69
2021/11/25 12:53:18;;;;;;;;;;;14.20;99.90;;;;;;5010269;28;19921;-69
2021/11/25 12:55:46;;;;;;;;;;;14.20;99.90;;;;;;5009122;28;19920;-70
2021/11/25 12:58:12;;;;;;;;;;;14.20;99.90;;;;;;5009419;28;19925;-69
2021/11/25 13:00:39;;;;;;;;;;;14.10;99.90;;;;;;5008001;28;19914;-69
2021/11/25 13:03:06;;;;;;;;;;;14.10;99.90;;;;;;5007452;28;19917;-69
2021/11/25 13:05:32;;;;;;;;;;;14.00;99.90;;;;;;5009101;28;19925;-68
2021/11/25 13:08:00;;;;;;;;;;;14.10;99.90;;;;;;5007399;28;19920;-68
2021/11/25 13:10:27;;;;;;;;;;;14.10;99.90;;;;;;5012337;28;19975;-69
2021/11/25 13:13:06;;;;;;;;;;;13.90;99.90;;;;;;5012849;28;20303;-69
2021/11/25 13:15:32;;;;;;;;;;;13.80;99.90;;;;;;5009480;28;20406;-69
2021/11/25 13:17:57;;;;;;;;;;;13.80;99.90;;;;;;5011677;28;19913;-69
2021/11/25 13:20:43;;;;;;;;;;;13.70;99.90;;;;;;5007951;28;19914;-68
2021/11/25 13:23:09;;;;;;;;;;;13.60;99.90;;;;;;5007376;28;19914;-69
2021/11/25 13:25:44;;;;;;;;;;;13.70;99.90;;;;;;5006618;28;20302;-69
2021/11/25 13:28:24;;;;;;;;;;;13.70;99.90;;;;;;5011773;28;19959;-70
2021/11/25 13:31:07;;;;;;;;;;;13.70;99.90;;;;;;5022031;28;19913;-69
2021/11/25 13:33:51;;;;;;;;;;;13.60;99.90;;;;;;5011416;28;20441;-70
2021/11/25 13:36:17;;;;;;;;;;;13.70;99.90;;;;;;5029009;28;20350;-69
2021/11/25 13:38:47;;;;;;;;;;;13.60;99.90;;;;;;5013049;28;19951;-69
2021/11/25 13:41:13;;;;;;;;;;;13.50;99.90;;;;;;5004870;28;19917;-69
2021/11/25 13:43:49;;;;;;;;;;;13.60;99.90;;;;;;5010155;28;20016;-69
2021/11/25 13:46:15;;;;;;;;;;;13.60;99.90;;;;;;5006694;28;19917;-70
2021/11/25 13:48:40;;;;;;;;;;;13.60;99.90;;;;;;5009759;28;19960;-68
2021/11/25 13:51:06;;;;;;;;;;;13.50;99.90;;;;;;5011281;28;19932;-69
2021/11/25 13:53:32;;;;;;;;;;;13.50;99.90;;;;;;5011791;28;19956;-69
2021/11/25 13:55:58;;;;;;;;;;;13.50;99.90;;;;;;5010834;28;19957;-68
2021/11/25 13:58:24;;;;;;;;;;;13.40;99.90;;;;;;5007646;28;20405;-69
2021/11/25 14:00:51;;;;;;;;;;;13.60;99.90;;;;;;5009607;28;19991;-68
2021/11/25 14:03:18;;;;;;;;;;;13.70;99.90;;;;;;5011049;28;19958;-68
2021/11/25 14:05:45;;;;;;;;;;;13.70;99.90;;;;;;5010776;28;19913;-69
2021/11/25 14:08:12;;;;;;;;;;;13.80;99.90;;;;;;5008015;28;20198;-68
2021/11/25 14:10:38;;;;;;;;;;;13.70;99.90;;;;;;5007877;28;19964;-68
2021/11/25 14:13:05;;;;;;;;;;;13.50;99.90;;;;;;5012001;28;19918;-68
2021/11/25 14:15:32;;;;;;;;;;;13.60;99.90;;;;;;5011506;28;20282;-68
2021/11/25 14:17:59;;;;;;;;;;;13.60;99.90;;;;;;5011874;28;19909;-69
2021/11/25 14:20:26;;;;;;;;;;;13.60;99.90;;;;;;5009683;28;20016;-69
2021/11/25 14:22:52;;;;;;;;;;;13.50;99.90;;;;;;5007344;28;19921;-69
2021/11/25 14:25:26;;;;;;;;;;;13.40;99.90;;;;;;5005408;28;19948;-70
2021/11/25 14:30:37;;;;;;;;;;;13.30;99.90;;;;;;5008986;28;19983;-68
2021/11/25 14:33:05;;;;;;;;;;;13.20;99.90;;;;;;5008029;28;20394;-69
2021/11/25 14:35:38;;;;;;;;;;;13.20;99.90;;;;;;5009576;28;19933;-70